sensor_id;sensor_type;location;lat;lon;timestamp;P1;durP1;ratioP1;P2;durP2;ratioP2
7931;SDS011;4011;49.424;10.894;2023-03-23T00:00:23;5.40;;;2.92;;
7931;SDS011;4011;49.424;10.894;2023-03-23T00:05:44;4.35;;;2.95;;
7931;SDS011;4011;49.424;10.894;2023-03-23T00:11:10;4.93;;;3.22;;
7931;SDS011;4011;49.424;10.894;2023-03-23T00:16:36;5.78;;;3.38;;
7931;SDS011;4011;49.424;10.894;2023-03-23T00:21:59;4.75;;;3.40;;
7931;SDS011;4011;49.424;10.894;2023-03-23T00:27:21;5.82;;;3.38;;
7931;SDS011;4011;49.424;10.894;2023-03-23T00:32:54;5.03;;;2.95;;
7931;SDS011;4011;49.424;10.894;2023-03-23T00:44:43;5.35;;;2.95;;
7931;SDS011;4011;49.424;10.894;2023-03-23T00:50:34;5.13;;;3.20;;
7931;SDS011;4011;49.424;10.894;2023-03-23T00:55:56;4.78;;;2.63;;
7931;SDS011;4011;49.424;10.894;2023-03-23T01:01:17;4.50;;;2.92;;
7931;SDS011;4011;49.424;10.894;2023-03-23T01:06:40;4.22;;;2.72;;
7931;SDS011;4011;49.424;10.894;2023-03-23T01:12:02;5.00;;;3.00;;
7931;SDS011;4011;49.424;10.894;2023-03-23T01:17:24;5.55;;;3.20;;
7931;SDS011;4011;49.424;10.894;2023-03-23T01:22:47;4.85;;;2.85;;
7931;SDS011;4011;49.424;10.894;2023-03-23T01:28:08;4.43;;;2.85;;
7931;SDS011;4011;49.424;10.894;2023-03-23T01:33:30;4.07;;;2.72;;
7931;SDS011;4011;49.424;10.894;2023-03-23T01:38:53;4.72;;;2.75;;
7931;SDS011;4011;49.424;10.894;2023-03-23T01:49:55;4.65;;;3.25;;
7931;SDS011;4011;49.424;10.894;2023-03-23T01:55:18;4.65;;;2.85;;
7931;SDS011;4011;49.424;10.894;2023-03-23T02:00:39;4.68;;;3.20;;
7931;SDS011;4011;49.424;10.894;2023-03-23T02:06:03;4.50;;;2.55;;
7931;SDS011;4011;49.424;10.894;2023-03-23T02:11:25;4.68;;;2.78;;
7931;SDS011;4011;49.424;10.894;2023-03-23T02:16:48;3.83;;;2.70;;
7931;SDS011;4011;49.424;10.894;2023-03-23T02:22:18;4.97;;;2.75;;
7931;SDS011;4011;49.424;10.894;2023-03-23T02:39:08;3.45;;;2.38;;
7931;SDS011;4011;49.424;10.894;2023-03-23T02:44:31;4.38;;;2.60;;
7931;SDS011;4011;49.424;10.894;2023-03-23T02:49:54;4.60;;;2.83;;
7931;SDS011;4011;49.424;10.894;2023-03-23T02:55:17;4.38;;;2.63;;
7931;SDS011;4011;49.424;10.894;2023-03-23T03:00:39;3.75;;;2.42;;
7931;SDS011;4011;49.424;10.894;2023-03-23T03:06:02;4.18;;;2.70;;
7931;SDS011;4011;49.424;10.894;2023-03-23T03:11:28;5.30;;;2.70;;
7931;SDS011;4011;49.424;10.894;2023-03-23T03:16:52;3.35;;;2.33;;
7931;SDS011;4011;49.424;10.894;2023-03-23T03:22:15;3.70;;;2.60;;
7931;SDS011;4011;49.424;10.894;2023-03-23T03:27:39;4.60;;;2.65;;
7931;SDS011;4011;49.424;10.894;2023-03-23T03:33:01;4.05;;;2.53;;
7931;SDS011;4011;49.424;10.894;2023-03-23T03:38:25;3.90;;;2.53;;
7931;SDS011;4011;49.424;10.894;2023-03-23T03:43:48;3.75;;;2.50;;
7931;SDS011;4011;49.424;10.894;2023-03-23T03:49:10;3.40;;;2.40;;
7931;SDS011;4011;49.424;10.894;2023-03-23T03:54:32;3.33;;;2.22;;
7931;SDS011;4011;49.424;10.894;2023-03-23T03:59:55;3.50;;;2.50;;
7931;SDS011;4011;49.424;10.894;2023-03-23T04:05:16;3.33;;;2.38;;
7931;SDS011;4011;49.424;10.894;2023-03-23T04:10:38;3.78;;;2.53;;
7931;SDS011;4011;49.424;10.894;2023-03-23T04:16:02;4.05;;;2.40;;
7931;SDS011;4011;49.424;10.894;2023-03-23T04:21:23;3.70;;;2.30;;
7931;SDS011;4011;49.424;10.894;2023-03-23T04:26:48;3.30;;;2.35;;
7931;SDS011;4011;49.424;10.894;2023-03-23T04:32:13;3.63;;;2.35;;
7931;SDS011;4011;49.424;10.894;2023-03-23T04:37:34;3.97;;;2.60;;
7931;SDS011;4011;49.424;10.894;2023-03-23T04:42:56;3.70;;;2.50;;
7931;SDS011;4011;49.424;10.894;2023-03-23T04:48:27;3.83;;;2.45;;
7931;SDS011;4011;49.424;10.894;2023-03-23T04:53:49;3.45;;;2.30;;
7931;SDS011;4011;49.424;10.894;2023-03-23T04:59:11;3.50;;;2.22;;
7931;SDS011;4011;49.424;10.894;2023-03-23T05:04:34;4.00;;;2.28;;
7931;SDS011;4011;49.424;10.894;2023-03-23T05:09:57;3.28;;;2.20;;
7931;SDS011;4011;49.424;10.894;2023-03-23T05:15:18;4.20;;;2.10;;
7931;SDS011;4011;49.424;10.894;2023-03-23T05:20:41;3.30;;;2.10;;
7931;SDS011;4011;49.424;10.894;2023-03-23T05:26:03;3.70;;;2.15;;
7931;SDS011;4011;49.424;10.894;2023-03-23T05:31:24;3.30;;;2.20;;
7931;SDS011;4011;49.424;10.894;2023-03-23T05:36:47;3.83;;;1.92;;
7931;SDS011;4011;49.424;10.894;2023-03-23T05:42:09;3.38;;;2.08;;
7931;SDS011;4011;49.424;10.894;2023-03-23T05:47:30;3.55;;;2.17;;
7931;SDS011;4011;49.424;10.894;2023-03-23T05:52:53;3.38;;;2.00;;
7931;SDS011;4011;49.424;10.894;2023-03-23T05:58:15;3.70;;;2.08;;
7931;SDS011;4011;49.424;10.894;2023-03-23T06:03:36;4.68;;;2.20;;
7931;SDS011;4011;49.424;10.894;2023-03-23T06:08:59;2.97;;;2.00;;
7931;SDS011;4011;49.424;10.894;2023-03-23T06:14:20;3.40;;;2.10;;
7931;SDS011;4011;49.424;10.894;2023-03-23T06:19:42;3.40;;;2.35;;
7931;SDS011;4011;49.424;10.894;2023-03-23T06:25:05;3.40;;;2.20;;
7931;SDS011;4011;49.424;10.894;2023-03-23T06:30:27;3.35;;;2.00;;
7931;SDS011;4011;49.424;10.894;2023-03-23T06:35:49;3.40;;;2.30;;
7931;SDS011;4011;49.424;10.894;2023-03-23T06:41:13;3.75;;;1.95;;
7931;SDS011;4011;49.424;10.894;2023-03-23T06:46:34;4.20;;;2.10;;
7931;SDS011;4011;49.424;10.894;2023-03-23T06:51:56;3.05;;;1.80;;
7931;SDS011;4011;49.424;10.894;2023-03-23T06:57:19;3.40;;;2.08;;
7931;SDS011;4011;49.424;10.894;2023-03-23T07:08:05;3.90;;;2.20;;
7931;SDS011;4011;49.424;10.894;2023-03-23T07:13:28;3.67;;;2.00;;
7931;SDS011;4011;49.424;10.894;2023-03-23T07:18:49;3.22;;;2.00;;
7931;SDS011;4011;49.424;10.894;2023-03-23T07:24:12;2.78;;;1.75;;
7931;SDS011;4011;49.424;10.894;2023-03-23T07:29:35;3.67;;;1.98;;
7931;SDS011;4011;49.424;10.894;2023-03-23T07:34:58;3.17;;;2.00;;
7931;SDS011;4011;49.424;10.894;2023-03-23T07:40:20;3.53;;;2.00;;
7931;SDS011;4011;49.424;10.894;2023-03-23T07:45:43;2.85;;;1.70;;
7931;SDS011;4011;49.424;10.894;2023-03-23T07:51:05;3.25;;;1.90;;
7931;SDS011;4011;49.424;10.894;2023-03-23T07:56:27;3.63;;;1.73;;
7931;SDS011;4011;49.424;10.894;2023-03-23T08:01:50;3.85;;;2.15;;
7931;SDS011;4011;49.424;10.894;2023-03-23T08:07:12;3.38;;;2.20;;
7931;SDS011;4011;49.424;10.894;2023-03-23T08:12:36;2.90;;;1.70;;
7931;SDS011;4011;49.424;10.894;2023-03-23T08:17:59;3.53;;;2.05;;
7931;SDS011;4011;49.424;10.894;2023-03-23T08:23:21;3.50;;;1.95;;
7931;SDS011;4011;49.424;10.894;2023-03-23T08:28:43;3.22;;;1.95;;
7931;SDS011;4011;49.424;10.894;2023-03-23T08:34:06;3.28;;;2.00;;
7931;SDS011;4011;49.424;10.894;2023-03-23T08:39:28;3.03;;;1.90;;
7931;SDS011;4011;49.424;10.894;2023-03-23T08:44:50;2.90;;;2.00;;
7931;SDS011;4011;49.424;10.894;2023-03-23T08:50:14;3.72;;;2.28;;
7931;SDS011;4011;49.424;10.894;2023-03-23T08:55:36;2.90;;;2.15;;
7931;SDS011;4011;49.424;10.894;2023-03-23T09:00:58;3.67;;;2.05;;
7931;SDS011;4011;49.424;10.894;2023-03-23T09:06:21;3.22;;;1.90;;
7931;SDS011;4011;49.424;10.894;2023-03-23T09:11:43;3.55;;;2.20;;
7931;SDS011;4011;49.424;10.894;2023-03-23T09:17:05;3.28;;;1.98;;
7931;SDS011;4011;49.424;10.894;2023-03-23T09:22:28;3.70;;;2.10;;
7931;SDS011;4011;49.424;10.894;2023-03-23T09:27:50;3.97;;;2.33;;
7931;SDS011;4011;49.424;10.894;2023-03-23T09:33:16;3.60;;;2.13;;
7931;SDS011;4011;49.424;10.894;2023-03-23T09:38:39;5.18;;;2.50;;
7931;SDS011;4011;49.424;10.894;2023-03-23T09:44:04;3.40;;;2.17;;
7931;SDS011;4011;49.424;10.894;2023-03-23T09:49:30;3.40;;;2.00;;
7931;SDS011;4011;49.424;10.894;2023-03-23T09:54:55;3.22;;;2.10;;
7931;SDS011;4011;49.424;10.894;2023-03-23T10:00:18;3.40;;;2.00;;
7931;SDS011;4011;49.424;10.894;2023-03-23T10:05:42;4.00;;;2.03;;
7931;SDS011;4011;49.424;10.894;2023-03-23T10:11:08;3.10;;;2.05;;
7931;SDS011;4011;49.424;10.894;2023-03-23T10:16:32;3.58;;;1.98;;
7931;SDS011;4011;49.424;10.894;2023-03-23T10:22:01;5.20;;;2.35;;
7931;SDS011;4011;49.424;10.894;2023-03-23T10:27:38;4.95;;;2.30;;
7931;SDS011;4011;49.424;10.894;2023-03-23T10:33:08;4.28;;;2.20;;
7931;SDS011;4011;49.424;10.894;2023-03-23T10:43:58;4.38;;;2.00;;
7931;SDS011;4011;49.424;10.894;2023-03-23T11:00:33;2.50;;;1.80;;
7931;SDS011;4011;49.424;10.894;2023-03-23T11:06:02;3.58;;;1.98;;
7931;SDS011;4011;49.424;10.894;2023-03-23T11:11:37;3.72;;;2.00;;
7931;SDS011;4011;49.424;10.894;2023-03-23T11:17:20;3.10;;;1.88;;
7931;SDS011;4011;49.424;10.894;2023-03-23T11:22:44;3.40;;;1.85;;
7931;SDS011;4011;49.424;10.894;2023-03-23T11:28:28;3.55;;;2.00;;
7931;SDS011;4011;49.424;10.894;2023-03-23T11:34:09;3.58;;;1.80;;
7931;SDS011;4011;49.424;10.894;2023-03-23T11:39:46;3.95;;;2.30;;
7931;SDS011;4011;49.424;10.894;2023-03-23T11:51:22;2.65;;;1.80;;
7931;SDS011;4011;49.424;10.894;2023-03-23T11:56:47;3.53;;;2.00;;
7931;SDS011;4011;49.424;10.894;2023-03-23T12:02:19;3.53;;;2.00;;
7931;SDS011;4011;49.424;10.894;2023-03-23T12:08:10;2.85;;;1.88;;
7931;SDS011;4011;49.424;10.894;2023-03-23T12:13:50;2.80;;;1.75;;
7931;SDS011;4011;49.424;10.894;2023-03-23T12:19:25;3.20;;;1.70;;
7931;SDS011;4011;49.424;10.894;2023-03-23T12:25:09;2.97;;;1.80;;
7931;SDS011;4011;49.424;10.894;2023-03-23T12:30:47;2.92;;;1.90;;
7931;SDS011;4011;49.424;10.894;2023-03-23T12:41:58;3.97;;;1.80;;
7931;SDS011;4011;49.424;10.894;2023-03-23T12:47:34;5.18;;;2.00;;
7931;SDS011;4011;49.424;10.894;2023-03-23T12:59:15;3.05;;;1.90;;
7931;SDS011;4011;49.424;10.894;2023-03-23T13:04:41;2.80;;;1.70;;
7931;SDS011;4011;49.424;10.894;2023-03-23T13:10:23;2.20;;;1.60;;
7931;SDS011;4011;49.424;10.894;2023-03-23T13:16:04;2.67;;;1.60;;
7931;SDS011;4011;49.424;10.894;2023-03-23T13:21:34;3.15;;;1.70;;
7931;SDS011;4011;49.424;10.894;2023-03-23T13:27:11;2.33;;;1.50;;
7931;SDS011;4011;49.424;10.894;2023-03-23T13:32:42;2.35;;;1.50;;
7931;SDS011;4011;49.424;10.894;2023-03-23T13:38:24;2.40;;;1.50;;
7931;SDS011;4011;49.424;10.894;2023-03-23T13:49:50;2.35;;;1.50;;
7931;SDS011;4011;49.424;10.894;2023-03-23T14:13:19;2.72;;;1.55;;
7931;SDS011;4011;49.424;10.894;2023-03-23T14:19:04;2.78;;;1.60;;
7931;SDS011;4011;49.424;10.894;2023-03-23T14:30:48;2.75;;;1.80;;
7931;SDS011;4011;49.424;10.894;2023-03-23T14:36:13;2.08;;;1.42;;
7931;SDS011;4011;49.424;10.894;2023-03-23T14:47:00;2.53;;;1.63;;
7931;SDS011;4011;49.424;10.894;2023-03-23T14:52:23;3.58;;;1.80;;
7931;SDS011;4011;49.424;10.894;2023-03-23T14:57:45;2.45;;;1.63;;
7931;SDS011;4011;49.424;10.894;2023-03-23T15:03:12;2.40;;;1.50;;
7931;SDS011;4011;49.424;10.894;2023-03-23T15:08:35;2.60;;;1.60;;
7931;SDS011;4011;49.424;10.894;2023-03-23T15:13:58;2.35;;;1.50;;
7931;SDS011;4011;49.424;10.894;2023-03-23T15:19:25;2.95;;;1.63;;
7931;SDS011;4011;49.424;10.894;2023-03-23T15:24:50;2.60;;;1.60;;
7931;SDS011;4011;49.424;10.894;2023-03-23T15:30:18;3.10;;;1.70;;
7931;SDS011;4011;49.424;10.894;2023-03-23T15:35:50;3.33;;;1.90;;
7931;SDS011;4011;49.424;10.894;2023-03-23T15:41:21;2.92;;;1.80;;
7931;SDS011;4011;49.424;10.894;2023-03-23T15:46:49;2.50;;;1.65;;
7931;SDS011;4011;49.424;10.894;2023-03-23T15:52:13;2.53;;;1.65;;
7931;SDS011;4011;49.424;10.894;2023-03-23T15:57:35;2.60;;;1.70;;
7931;SDS011;4011;49.424;10.894;2023-03-23T16:02:57;2.47;;;1.70;;
7931;SDS011;4011;49.424;10.894;2023-03-23T16:08:21;3.55;;;2.10;;
7931;SDS011;4011;49.424;10.894;2023-03-23T16:13:43;2.70;;;1.70;;
7931;SDS011;4011;49.424;10.894;2023-03-23T16:19:12;3.10;;;1.90;;
7931;SDS011;4011;49.424;10.894;2023-03-23T16:24:36;3.83;;;1.80;;
7931;SDS011;4011;49.424;10.894;2023-03-23T16:30:01;2.80;;;1.63;;
7931;SDS011;4011;49.424;10.894;2023-03-23T16:35:24;4.45;;;1.90;;
7931;SDS011;4011;49.424;10.894;2023-03-23T16:40:47;3.28;;;1.83;;
7931;SDS011;4011;49.424;10.894;2023-03-23T16:46:09;3.35;;;1.70;;
7931;SDS011;4011;49.424;10.894;2023-03-23T16:51:31;3.65;;;1.88;;
7931;SDS011;4011;49.424;10.894;2023-03-23T16:57:00;3.38;;;1.98;;
7931;SDS011;4011;49.424;10.894;2023-03-23T17:02:24;3.58;;;1.98;;
7931;SDS011;4011;49.424;10.894;2023-03-23T17:07:47;2.90;;;1.85;;
7931;SDS011;4011;49.424;10.894;2023-03-23T17:13:10;3.50;;;2.10;;
7931;SDS011;4011;49.424;10.894;2023-03-23T17:18:32;2.70;;;2.00;;
7931;SDS011;4011;49.424;10.894;2023-03-23T17:23:54;4.18;;;2.30;;
7931;SDS011;4011;49.424;10.894;2023-03-23T17:29:17;3.10;;;2.13;;
7931;SDS011;4011;49.424;10.894;2023-03-23T17:34:41;3.40;;;2.10;;
7931;SDS011;4011;49.424;10.894;2023-03-23T17:40:03;2.90;;;2.00;;
7931;SDS011;4011;49.424;10.894;2023-03-23T17:45:29;3.08;;;2.30;;
7931;SDS011;4011;49.424;10.894;2023-03-23T17:50:52;4.70;;;2.15;;
7931;SDS011;4011;49.424;10.894;2023-03-23T17:56:14;3.58;;;2.30;;
7931;SDS011;4011;49.424;10.894;2023-03-23T18:01:37;3.13;;;1.80;;
7931;SDS011;4011;49.424;10.894;2023-03-23T18:06:59;3.15;;;2.00;;
7931;SDS011;4011;49.424;10.894;2023-03-23T18:12:20;3.30;;;2.20;;
7931;SDS011;4011;49.424;10.894;2023-03-23T18:17:44;2.83;;;1.95;;
7931;SDS011;4011;49.424;10.894;2023-03-23T18:23:07;3.00;;;2.00;;
7931;SDS011;4011;49.424;10.894;2023-03-23T18:28:29;3.33;;;2.10;;
7931;SDS011;4011;49.424;10.894;2023-03-23T18:33:52;3.17;;;2.33;;
7931;SDS011;4011;49.424;10.894;2023-03-23T18:39:15;3.15;;;1.98;;
7931;SDS011;4011;49.424;10.894;2023-03-23T18:44:40;3.75;;;2.13;;
7931;SDS011;4011;49.424;10.894;2023-03-23T18:50:13;3.33;;;2.10;;
7931;SDS011;4011;49.424;10.894;2023-03-23T18:55:43;3.72;;;2.15;;
7931;SDS011;4011;49.424;10.894;2023-03-23T19:07:01;3.55;;;2.00;;
7931;SDS011;4011;49.424;10.894;2023-03-23T19:12:32;3.55;;;2.13;;
7931;SDS011;4011;49.424;10.894;2023-03-23T19:23:40;3.88;;;2.40;;
7931;SDS011;4011;49.424;10.894;2023-03-23T19:29:16;3.42;;;2.08;;
7931;SDS011;4011;49.424;10.894;2023-03-23T19:34:38;4.35;;;2.50;;
7931;SDS011;4011;49.424;10.894;2023-03-23T19:40:01;4.63;;;2.53;;
7931;SDS011;4011;49.424;10.894;2023-03-23T19:50:51;3.50;;;2.38;;
7931;SDS011;4011;49.424;10.894;2023-03-23T19:56:22;3.97;;;2.30;;
7931;SDS011;4011;49.424;10.894;2023-03-23T20:01:49;3.97;;;2.65;;
7931;SDS011;4011;49.424;10.894;2023-03-23T20:07:55;4.90;;;2.70;;
7931;SDS011;4011;49.424;10.894;2023-03-23T20:13:45;3.75;;;2.50;;
7931;SDS011;4011;49.424;10.894;2023-03-23T20:19:13;3.50;;;2.50;;
7931;SDS011;4011;49.424;10.894;2023-03-23T20:36:34;3.15;;;2.13;;
7931;SDS011;4011;49.424;10.894;2023-03-23T20:42:13;4.00;;;2.30;;
7931;SDS011;4011;49.424;10.894;2023-03-23T20:47:42;3.85;;;2.60;;
7931;SDS011;4011;49.424;10.894;2023-03-23T20:58:55;3.83;;;2.50;;
7931;SDS011;4011;49.424;10.894;2023-03-23T21:04:19;3.45;;;2.30;;
7931;SDS011;4011;49.424;10.894;2023-03-23T21:09:42;3.72;;;2.25;;
7931;SDS011;4011;49.424;10.894;2023-03-23T21:15:05;4.25;;;2.60;;
7931;SDS011;4011;49.424;10.894;2023-03-23T21:20:27;4.55;;;2.65;;
7931;SDS011;4011;49.424;10.894;2023-03-23T21:25:49;3.63;;;2.25;;
7931;SDS011;4011;49.424;10.894;2023-03-23T21:31:12;4.03;;;2.70;;
7931;SDS011;4011;49.424;10.894;2023-03-23T21:36:36;4.00;;;2.58;;
7931;SDS011;4011;49.424;10.894;2023-03-23T21:41:58;4.88;;;2.85;;
7931;SDS011;4011;49.424;10.894;2023-03-23T21:47:22;4.15;;;2.75;;
7931;SDS011;4011;49.424;10.894;2023-03-23T21:52:43;4.63;;;2.53;;
7931;SDS011;4011;49.424;10.894;2023-03-23T21:58:05;6.05;;;2.90;;
7931;SDS011;4011;49.424;10.894;2023-03-23T22:03:30;4.28;;;2.65;;
7931;SDS011;4011;49.424;10.894;2023-03-23T22:08:52;5.18;;;3.00;;
7931;SDS011;4011;49.424;10.894;2023-03-23T22:14:22;5.03;;;2.80;;
7931;SDS011;4011;49.424;10.894;2023-03-23T22:20:07;5.20;;;2.90;;
7931;SDS011;4011;49.424;10.894;2023-03-23T22:25:48;5.00;;;2.65;;
7931;SDS011;4011;49.424;10.894;2023-03-23T22:31:17;4.55;;;2.83;;
7931;SDS011;4011;49.424;10.894;2023-03-23T22:36:54;4.80;;;2.80;;
7931;SDS011;4011;49.424;10.894;2023-03-23T22:42:16;4.57;;;2.90;;
7931;SDS011;4011;49.424;10.894;2023-03-23T22:47:37;5.85;;;3.05;;
7931;SDS011;4011;49.424;10.894;2023-03-23T22:53:01;4.72;;;2.90;;
7931;SDS011;4011;49.424;10.894;2023-03-23T22:58:23;5.57;;;2.70;;
7931;SDS011;4011;49.424;10.894;2023-03-23T23:03:44;5.32;;;2.92;;
7931;SDS011;4011;49.424;10.894;2023-03-23T23:09:07;4.53;;;2.78;;
7931;SDS011;4011;49.424;10.894;2023-03-23T23:14:29;3.80;;;2.75;;
7931;SDS011;4011;49.424;10.894;2023-03-23T23:19:51;4.63;;;2.60;;
7931;SDS011;4011;49.424;10.894;2023-03-23T23:25:14;4.63;;;2.70;;
7931;SDS011;4011;49.424;10.894;2023-03-23T23:30:36;4.57;;;2.78;;
7931;SDS011;4011;49.424;10.894;2023-03-23T23:35:58;5.15;;;2.70;;
7931;SDS011;4011;49.424;10.894;2023-03-23T23:41:22;4.95;;;2.67;;
7931;SDS011;4011;49.424;10.894;2023-03-23T23:46:43;4.72;;;2.63;;
7931;SDS011;4011;49.424;10.894;2023-03-23T23:52:05;5.10;;;2.67;;
7931;SDS011;4011;49.424;10.894;2023-03-23T23:57:28;4.18;;;2.80;;
